sensor_id;sensor_type;location;lat;lon;timestamp;pressure;altitude;pressure_sealevel;temperature;humidity
46846;BME280;33947;46.804;134.252;2024-01-25T00:01:51;101807.00;;;-26.53;58.28
46846;BME280;33947;46.804;134.252;2024-01-25T00:05:02;101799.50;;;-26.04;59.24
46846;BME280;33947;46.804;134.252;2024-01-25T00:08:16;101794.31;;;-26.60;56.86
46846;BME280;33947;46.804;134.252;2024-01-25T00:11:28;101779.88;;;-26.68;58.31
46846;BME280;33947;46.804;134.252;2024-01-25T00:14:43;101800.22;;;-25.77;59.25
46846;BME280;33947;46.804;134.252;2024-01-25T00:17:53;101796.06;;;-24.62;59.05
46846;BME280;33947;46.804;134.252;2024-01-25T00:21:04;101790.59;;;-24.22;55.96
46846;BME280;33947;46.804;134.252;2024-01-25T00:24:15;101783.34;;;-24.12;57.41
46846;BME280;33947;46.804;134.252;2024-01-25T00:27:27;101786.66;;;-24.56;55.71
46846;BME280;33947;46.804;134.252;2024-01-25T00:30:35;101793.88;;;-24.52;55.97
46846;BME280;33947;46.804;134.252;2024-01-25T00:33:44;101787.00;;;-24.24;56.95
46846;BME280;33947;46.804;134.252;2024-01-25T00:36:52;101786.22;;;-23.63;57.19
46846;BME280;33947;46.804;134.252;2024-01-25T00:40:01;101796.34;;;-23.26;56.35
46846;BME280;33947;46.804;134.252;2024-01-25T00:43:09;101791.16;;;-23.04;55.55
46846;BME280;33947;46.804;134.252;2024-01-25T00:46:18;101800.66;;;-22.48;56.72
46846;BME280;33947;46.804;134.252;2024-01-25T00:49:28;101800.31;;;-21.22;54.54
46846;BME280;33947;46.804;134.252;2024-01-25T00:52:35;101800.19;;;-20.65;51.68
46846;BME280;33947;46.804;134.252;2024-01-25T00:55:44;101792.50;;;-19.72;51.58
46846;BME280;33947;46.804;134.252;2024-01-25T00:58:51;101781.00;;;-20.70;50.06
46846;BME280;33947;46.804;134.252;2024-01-25T01:01:59;101786.78;;;-19.87;51.87
46846;BME280;33947;46.804;134.252;2024-01-25T01:05:15;101786.75;;;-18.99;49.17
46846;BME280;33947;46.804;134.252;2024-01-25T01:08:23;101779.13;;;-19.07;47.86
46846;BME280;33947;46.804;134.252;2024-01-25T01:11:31;101782.00;;;-19.66;48.96
46846;BME280;33947;46.804;134.252;2024-01-25T01:14:38;101787.22;;;-19.82;49.50
46846;BME280;33947;46.804;134.252;2024-01-25T01:17:45;101776.13;;;-18.02;47.25
46846;BME280;33947;46.804;134.252;2024-01-25T01:20:54;101785.69;;;-18.55;47.76
46846;BME280;33947;46.804;134.252;2024-01-25T01:24:01;101696.41;;;-18.55;47.12
46846;BME280;33947;46.804;134.252;2024-01-25T01:27:08;101782.75;;;-17.57;44.64
46846;BME280;33947;46.804;134.252;2024-01-25T01:30:15;101772.75;;;-17.15;46.12
46846;BME280;33947;46.804;134.252;2024-01-25T01:33:22;101743.19;;;-18.46;43.52
46846;BME280;33947;46.804;134.252;2024-01-25T01:36:38;101737.00;;;-18.11;42.34
46846;BME280;33947;46.804;134.252;2024-01-25T01:39:46;101774.91;;;-18.98;42.75
46846;BME280;33947;46.804;134.252;2024-01-25T01:43:00;101749.91;;;-16.53;45.10
46846;BME280;33947;46.804;134.252;2024-01-25T01:46:12;101734.06;;;-15.66;39.34
46846;BME280;33947;46.804;134.252;2024-01-25T01:49:26;101759.59;;;-17.29;39.76
46846;BME280;33947;46.804;134.252;2024-01-25T01:52:36;101764.84;;;-17.08;41.25
46846;BME280;33947;46.804;134.252;2024-01-25T01:55:44;101765.56;;;-15.78;42.04
46846;BME280;33947;46.804;134.252;2024-01-25T01:58:52;101732.25;;;-14.81;42.09
46846;BME280;33947;46.804;134.252;2024-01-25T02:01:59;101719.69;;;-15.21;39.67
46846;BME280;33947;46.804;134.252;2024-01-25T02:05:10;101751.88;;;-15.14;39.44
46846;BME280;33947;46.804;134.252;2024-01-25T02:08:24;101751.19;;;-15.44;41.29
46846;BME280;33947;46.804;134.252;2024-01-25T02:11:31;101744.31;;;-15.97;39.76
46846;BME280;33947;46.804;134.252;2024-01-25T02:14:39;101735.88;;;-16.48;40.73
46846;BME280;33947;46.804;134.252;2024-01-25T02:17:47;101730.56;;;-17.40;40.39
46846;BME280;33947;46.804;134.252;2024-01-25T02:21:00;101723.47;;;-17.53;42.20
46846;BME280;33947;46.804;134.252;2024-01-25T02:24:09;101716.72;;;-16.83;42.40
46846;BME280;33947;46.804;134.252;2024-01-25T02:27:18;101705.16;;;-17.57;41.99
46846;BME280;33947;46.804;134.252;2024-01-25T02:30:32;101680.00;;;-17.63;43.19
46846;BME280;33947;46.804;134.252;2024-01-25T02:33:43;101708.47;;;-16.39;43.01
46846;BME280;33947;46.804;134.252;2024-01-25T02:36:53;101713.09;;;-16.14;41.97
46846;BME280;33947;46.804;134.252;2024-01-25T02:40:04;101711.44;;;-16.24;41.75
46846;BME280;33947;46.804;134.252;2024-01-25T02:43:18;101704.06;;;-16.81;40.35
46846;BME280;33947;46.804;134.252;2024-01-25T02:46:30;101672.94;;;-17.65;41.32
46846;BME280;33947;46.804;134.252;2024-01-25T02:49:38;101699.22;;;-17.37;42.14
46846;BME280;33947;46.804;134.252;2024-01-25T02:52:50;101694.56;;;-18.19;42.08
46846;BME280;33947;46.804;134.252;2024-01-25T02:56:03;101657.25;;;-18.84;43.67
46846;BME280;33947;46.804;134.252;2024-01-25T02:59:11;101683.16;;;-17.65;44.83
46846;BME280;33947;46.804;134.252;2024-01-25T03:02:23;101669.84;;;-17.91;44.15
46846;BME280;33947;46.804;134.252;2024-01-25T03:05:32;101665.31;;;-18.79;42.69
46846;BME280;33947;46.804;134.252;2024-01-25T03:08:39;101679.06;;;-18.96;45.24
46846;BME280;33947;46.804;134.252;2024-01-25T03:11:48;101661.81;;;-18.99;43.26
46846;BME280;33947;46.804;134.252;2024-01-25T03:14:55;101668.94;;;-19.22;43.49
46846;BME280;33947;46.804;134.252;2024-01-25T03:18:06;101670.81;;;-19.48;43.67
46846;BME280;33947;46.804;134.252;2024-01-25T03:21:13;101665.34;;;-18.32;45.83
46846;BME280;33947;46.804;134.252;2024-01-25T03:24:19;101647.69;;;-18.01;44.07
46846;BME280;33947;46.804;134.252;2024-01-25T03:27:51;101657.97;;;-17.31;43.60
46846;BME280;33947;46.804;134.252;2024-01-25T03:30:58;101654.91;;;-17.38;40.94
46846;BME280;33947;46.804;134.252;2024-01-25T03:34:05;101647.91;;;-17.89;41.26
46846;BME280;33947;46.804;134.252;2024-01-25T03:37:14;101621.94;;;-17.24;42.57
46846;BME280;33947;46.804;134.252;2024-01-25T03:40:25;101634.03;;;-17.53;40.94
46846;BME280;33947;46.804;134.252;2024-01-25T03:43:33;101650.03;;;-18.32;42.66
46846;BME280;33947;46.804;134.252;2024-01-25T03:46:50;101643.28;;;-18.12;42.71
46846;BME280;33947;46.804;134.252;2024-01-25T03:50:14;101643.50;;;-17.51;43.04
46846;BME280;33947;46.804;134.252;2024-01-25T03:53:24;101637.38;;;-16.93;43.51
46846;BME280;33947;46.804;134.252;2024-01-25T03:56:32;101636.47;;;-17.73;40.58
46846;BME280;33947;46.804;134.252;2024-01-25T03:59:41;101637.88;;;-16.97;42.34
46846;BME280;33947;46.804;134.252;2024-01-25T04:02:48;101628.19;;;-16.70;42.06
46846;BME280;33947;46.804;134.252;2024-01-25T04:05:56;101613.72;;;-18.00;41.16
46846;BME280;33947;46.804;134.252;2024-01-25T04:09:04;101625.03;;;-18.06;42.78
46846;BME280;33947;46.804;134.252;2024-01-25T04:12:12;101613.44;;;-17.84;43.32
46846;BME280;33947;46.804;134.252;2024-01-25T04:15:30;101622.22;;;-17.21;43.40
46846;BME280;33947;46.804;134.252;2024-01-25T04:18:39;101616.06;;;-17.33;41.58
46846;BME280;33947;46.804;134.252;2024-01-25T04:21:47;101618.25;;;-17.68;42.34
46846;BME280;33947;46.804;134.252;2024-01-25T04:24:55;101622.09;;;-17.62;43.36
46846;BME280;33947;46.804;134.252;2024-01-25T04:28:03;101627.06;;;-17.64;42.42
46846;BME280;33947;46.804;134.252;2024-01-25T04:31:15;101632.66;;;-18.17;43.07
46846;BME280;33947;46.804;134.252;2024-01-25T04:34:22;101636.09;;;-18.35;43.59
46846;BME280;33947;46.804;134.252;2024-01-25T04:37:30;101643.00;;;-18.15;43.01
46846;BME280;33947;46.804;134.252;2024-01-25T04:40:38;101643.28;;;-18.31;42.56
46846;BME280;33947;46.804;134.252;2024-01-25T04:43:45;101642.50;;;-17.73;42.88
46846;BME280;33947;46.804;134.252;2024-01-25T04:46:54;101619.06;;;-18.07;43.35
46846;BME280;33947;46.804;134.252;2024-01-25T04:50:01;101621.63;;;-17.48;43.60
46846;BME280;33947;46.804;134.252;2024-01-25T04:53:11;101638.84;;;-17.16;42.99
46846;BME280;33947;46.804;134.252;2024-01-25T04:56:25;101639.19;;;-16.71;42.78
46846;BME280;33947;46.804;134.252;2024-01-25T04:59:35;101637.19;;;-17.55;41.05
46846;BME280;33947;46.804;134.252;2024-01-25T05:02:44;101644.94;;;-17.64;43.15
46846;BME280;33947;46.804;134.252;2024-01-25T05:05:52;101647.19;;;-17.77;42.74
46846;BME280;33947;46.804;134.252;2024-01-25T05:09:15;101646.63;;;-17.64;44.65
46846;BME280;33947;46.804;134.252;2024-01-25T05:12:22;101647.94;;;-17.78;43.58
46846;BME280;33947;46.804;134.252;2024-01-25T05:15:30;101649.66;;;-17.69;44.25
46846;BME280;33947;46.804;134.252;2024-01-25T05:18:41;101661.41;;;-17.31;44.67
46846;BME280;33947;46.804;134.252;2024-01-25T05:21:52;101642.56;;;-17.23;44.21
46846;BME280;33947;46.804;134.252;2024-01-25T05:24:59;101659.72;;;-17.01;42.76
46846;BME280;33947;46.804;134.252;2024-01-25T05:28:07;101679.47;;;-17.29;43.37
46846;BME280;33947;46.804;134.252;2024-01-25T05:31:14;101674.53;;;-17.17;42.54
46846;BME280;33947;46.804;134.252;2024-01-25T05:34:30;101668.25;;;-17.11;42.29
46846;BME280;33947;46.804;134.252;2024-01-25T05:37:38;101674.59;;;-17.36;43.28
46846;BME280;33947;46.804;134.252;2024-01-25T05:40:46;101687.06;;;-17.50;42.75
46846;BME280;33947;46.804;134.252;2024-01-25T05:43:53;101681.22;;;-17.68;43.28
46846;BME280;33947;46.804;134.252;2024-01-25T05:47:00;101681.09;;;-17.30;43.49
46846;BME280;33947;46.804;134.252;2024-01-25T05:50:10;101685.59;;;-17.27;42.84
46846;BME280;33947;46.804;134.252;2024-01-25T05:53:18;101679.75;;;-17.16;42.17
46846;BME280;33947;46.804;134.252;2024-01-25T05:56:26;101681.59;;;-17.44;42.01
46846;BME280;33947;46.804;134.252;2024-01-25T05:59:33;101676.91;;;-17.29;41.57
46846;BME280;33947;46.804;134.252;2024-01-25T06:02:40;101672.16;;;-17.05;42.81
46846;BME280;33947;46.804;134.252;2024-01-25T06:05:50;101669.28;;;-16.69;43.18
46846;BME280;33947;46.804;134.252;2024-01-25T06:08:58;101669.66;;;-17.25;42.21
46846;BME280;33947;46.804;134.252;2024-01-25T06:12:16;101670.88;;;-17.30;42.44
46846;BME280;33947;46.804;134.252;2024-01-25T06:15:23;101680.41;;;-17.48;42.86
46846;BME280;33947;46.804;134.252;2024-01-25T06:18:30;101685.91;;;-17.54;43.36
46846;BME280;33947;46.804;134.252;2024-01-25T06:21:43;101694.06;;;-17.18;43.48
46846;BME280;33947;46.804;134.252;2024-01-25T06:24:50;101696.72;;;-17.27;42.13
46846;BME280;33947;46.804;134.252;2024-01-25T06:27:58;101700.28;;;-17.05;43.39
46846;BME280;33947;46.804;134.252;2024-01-25T06:31:06;101701.44;;;-16.41;42.65
46846;BME280;33947;46.804;134.252;2024-01-25T06:34:15;101593.06;;;-17.23;42.28
46846;BME280;33947;46.804;134.252;2024-01-25T06:37:23;101687.09;;;-16.39;41.81
46846;BME280;33947;46.804;134.252;2024-01-25T06:40:30;101678.47;;;-16.71;42.08
46846;BME280;33947;46.804;134.252;2024-01-25T06:43:37;101699.22;;;-16.57;41.65
46846;BME280;33947;46.804;134.252;2024-01-25T06:46:45;101711.75;;;-16.60;43.18
46846;BME280;33947;46.804;134.252;2024-01-25T06:50:13;101710.66;;;-16.33;43.51
46846;BME280;33947;46.804;134.252;2024-01-25T06:53:46;101592.34;;;-17.01;42.90
46846;BME280;33947;46.804;134.252;2024-01-25T06:56:54;101712.94;;;-16.46;44.02
46846;BME280;33947;46.804;134.252;2024-01-25T07:00:01;101709.50;;;-16.26;43.13
46846;BME280;33947;46.804;134.252;2024-01-25T07:03:09;101705.34;;;-16.76;42.99
46846;BME280;33947;46.804;134.252;2024-01-25T07:06:20;101700.88;;;-17.18;43.18
46846;BME280;33947;46.804;134.252;2024-01-25T07:09:39;101709.88;;;-17.32;43.24
46846;BME280;33947;46.804;134.252;2024-01-25T07:12:46;101705.47;;;-17.14;43.83
46846;BME280;33947;46.804;134.252;2024-01-25T07:15:53;101702.00;;;-17.15;43.23
46846;BME280;33947;46.804;134.252;2024-01-25T07:19:01;101707.59;;;-17.29;43.56
46846;BME280;33947;46.804;134.252;2024-01-25T07:22:10;101703.44;;;-17.67;43.93
46846;BME280;33947;46.804;134.252;2024-01-25T07:25:21;101717.34;;;-17.74;44.64
46846;BME280;33947;46.804;134.252;2024-01-25T07:28:28;101678.13;;;-18.13;44.53
46846;BME280;33947;46.804;134.252;2024-01-25T07:31:35;101713.22;;;-18.01;44.71
46846;BME280;33947;46.804;134.252;2024-01-25T07:34:42;101702.31;;;-18.37;44.28
46846;BME280;33947;46.804;134.252;2024-01-25T07:37:50;101712.88;;;-18.23;45.22
46846;BME280;33947;46.804;134.252;2024-01-25T07:40:58;101709.41;;;-18.43;45.06
46846;BME280;33947;46.804;134.252;2024-01-25T07:44:16;101714.50;;;-18.71;46.03
46846;BME280;33947;46.804;134.252;2024-01-25T07:47:26;101710.81;;;-18.56;46.39
46846;BME280;33947;46.804;134.252;2024-01-25T07:50:35;101676.38;;;-18.70;45.19
46846;BME280;33947;46.804;134.252;2024-01-25T07:53:44;101708.75;;;-18.88;44.95
46846;BME280;33947;46.804;134.252;2024-01-25T07:56:53;101712.16;;;-19.42;45.63
46846;BME280;33947;46.804;134.252;2024-01-25T08:00:01;101715.03;;;-19.65;46.50
46846;BME280;33947;46.804;134.252;2024-01-25T08:03:09;101711.44;;;-19.76;47.46
46846;BME280;33947;46.804;134.252;2024-01-25T08:06:18;101710.13;;;-19.98;46.53
46846;BME280;33947;46.804;134.252;2024-01-25T08:09:37;101717.72;;;-20.25;47.22
46846;BME280;33947;46.804;134.252;2024-01-25T08:12:49;101721.59;;;-20.28;47.77
46846;BME280;33947;46.804;134.252;2024-01-25T08:16:10;101712.34;;;-20.19;47.55
46846;BME280;33947;46.804;134.252;2024-01-25T08:19:18;101722.81;;;-20.25;47.43
46846;BME280;33947;46.804;134.252;2024-01-25T08:22:25;101705.97;;;-20.49;47.58
46846;BME280;33947;46.804;134.252;2024-01-25T08:25:33;101731.78;;;-20.28;47.71
46846;BME280;33947;46.804;134.252;2024-01-25T08:28:44;101731.09;;;-20.61;47.18
46846;BME280;33947;46.804;134.252;2024-01-25T08:31:54;101726.25;;;-20.76;48.29
46846;BME280;33947;46.804;134.252;2024-01-25T08:35:01;101736.81;;;-20.97;48.34
46846;BME280;33947;46.804;134.252;2024-01-25T08:38:10;101619.13;;;-21.05;47.86
46846;BME280;33947;46.804;134.252;2024-01-25T08:41:22;101730.06;;;-20.54;47.00
46846;BME280;33947;46.804;134.252;2024-01-25T08:44:33;101740.91;;;-20.73;47.00
46846;BME280;33947;46.804;134.252;2024-01-25T08:47:49;101748.28;;;-21.26;47.62
46846;BME280;33947;46.804;134.252;2024-01-25T08:51:08;101743.78;;;-21.28;48.14
46846;BME280;33947;46.804;134.252;2024-01-25T08:54:20;101728.53;;;-21.94;48.33
46846;BME280;33947;46.804;134.252;2024-01-25T08:57:30;101736.03;;;-21.71;48.52
46846;BME280;33947;46.804;134.252;2024-01-25T09:00:39;101745.28;;;-21.87;48.62
46846;BME280;33947;46.804;134.252;2024-01-25T09:03:47;101749.38;;;-21.81;48.48
46846;BME280;33947;46.804;134.252;2024-01-25T09:06:55;101750.03;;;-22.39;48.58
46846;BME280;33947;46.804;134.252;2024-01-25T09:10:03;101761.84;;;-22.23;49.65
46846;BME280;33947;46.804;134.252;2024-01-25T09:13:11;101763.16;;;-22.11;49.16
46846;BME280;33947;46.804;134.252;2024-01-25T09:16:20;101766.16;;;-22.38;49.28
46846;BME280;33947;46.804;134.252;2024-01-25T09:19:28;101763.78;;;-22.21;48.49
46846;BME280;33947;46.804;134.252;2024-01-25T09:22:35;101756.50;;;-22.50;48.55
46846;BME280;33947;46.804;134.252;2024-01-25T09:25:43;101765.19;;;-22.31;48.72
46846;BME280;33947;46.804;134.252;2024-01-25T09:28:59;101766.72;;;-22.41;48.20
46846;BME280;33947;46.804;134.252;2024-01-25T09:32:09;101768.69;;;-23.01;49.31
46846;BME280;33947;46.804;134.252;2024-01-25T09:35:16;101766.97;;;-23.16;49.86
46846;BME280;33947;46.804;134.252;2024-01-25T09:38:23;101747.63;;;-23.84;50.47
46846;BME280;33947;46.804;134.252;2024-01-25T09:41:32;101773.19;;;-23.59;51.82
46846;BME280;33947;46.804;134.252;2024-01-25T09:44:51;101767.28;;;-23.74;50.93
46846;BME280;33947;46.804;134.252;2024-01-25T09:48:01;101753.78;;;-24.34;51.84
46846;BME280;33947;46.804;134.252;2024-01-25T09:51:11;101722.38;;;-24.44;52.17
46846;BME280;33947;46.804;134.252;2024-01-25T09:54:19;101770.31;;;-24.07;52.36
46846;BME280;33947;46.804;134.252;2024-01-25T09:57:30;101777.06;;;-23.77;51.84
46846;BME280;33947;46.804;134.252;2024-01-25T10:00:44;101778.09;;;-24.06;50.69
46846;BME280;33947;46.804;134.252;2024-01-25T10:03:54;101781.56;;;-24.34;51.89
46846;BME280;33947;46.804;134.252;2024-01-25T10:07:02;101790.75;;;-24.20;52.38
46846;BME280;33947;46.804;134.252;2024-01-25T10:10:12;101790.25;;;-24.40;52.27
46846;BME280;33947;46.804;134.252;2024-01-25T10:13:20;101793.13;;;-24.65;52.27
46846;BME280;33947;46.804;134.252;2024-01-25T10:16:27;101792.44;;;-24.57;52.71
46846;BME280;33947;46.804;134.252;2024-01-25T10:19:36;101799.13;;;-24.65;52.76
46846;BME280;33947;46.804;134.252;2024-01-25T10:22:44;101797.69;;;-23.89;51.63
46846;BME280;33947;46.804;134.252;2024-01-25T10:25:52;101797.50;;;-24.50;51.47
46846;BME280;33947;46.804;134.252;2024-01-25T10:29:01;101757.28;;;-25.14;51.83
46846;BME280;33947;46.804;134.252;2024-01-25T10:32:09;101802.88;;;-25.19;52.41
46846;BME280;33947;46.804;134.252;2024-01-25T10:35:19;101800.25;;;-25.56;52.73
46846;BME280;33947;46.804;134.252;2024-01-25T10:38:30;101785.59;;;-24.94;53.33
46846;BME280;33947;46.804;134.252;2024-01-25T10:41:39;101799.66;;;-24.53;52.59
46846;BME280;33947;46.804;134.252;2024-01-25T10:44:48;101799.25;;;-24.27;51.30
46846;BME280;33947;46.804;134.252;2024-01-25T10:47:57;101794.28;;;-24.92;50.80
46846;BME280;33947;46.804;134.252;2024-01-25T10:51:07;101760.13;;;-25.96;51.98
46846;BME280;33947;46.804;134.252;2024-01-25T10:54:17;101803.56;;;-25.91;53.78
46846;BME280;33947;46.804;134.252;2024-01-25T10:57:27;101809.66;;;-25.96;54.22
46846;BME280;33947;46.804;134.252;2024-01-25T11:00:51;101800.16;;;-25.85;54.74
46846;BME280;33947;46.804;134.252;2024-01-25T11:04:01;101791.22;;;-25.75;55.13
46846;BME280;33947;46.804;134.252;2024-01-25T11:07:09;101775.22;;;-25.47;54.88
46846;BME280;33947;46.804;134.252;2024-01-25T11:10:19;101810.66;;;-24.96;53.58
46846;BME280;33947;46.804;134.252;2024-01-25T11:13:27;101805.97;;;-24.93;52.29
46846;BME280;33947;46.804;134.252;2024-01-25T11:16:38;101802.19;;;-24.97;51.63
46846;BME280;33947;46.804;134.252;2024-01-25T11:19:48;101795.16;;;-24.85;51.10
46846;BME280;33947;46.804;134.252;2024-01-25T11:23:02;101796.59;;;-24.65;50.24
46846;BME280;33947;46.804;134.252;2024-01-25T11:26:11;101788.44;;;-25.20;49.95
46846;BME280;33947;46.804;134.252;2024-01-25T11:29:21;101786.91;;;-26.04;51.11
46846;BME280;33947;46.804;134.252;2024-01-25T11:32:33;101789.41;;;-25.62;52.30
46846;BME280;33947;46.804;134.252;2024-01-25T11:35:43;101781.81;;;-26.18;51.50
46846;BME280;33947;46.804;134.252;2024-01-25T11:38:53;101794.88;;;-26.28;52.95
46846;BME280;33947;46.804;134.252;2024-01-25T11:42:03;101793.00;;;-26.09;53.16
46846;BME280;33947;46.804;134.252;2024-01-25T11:45:12;101802.09;;;-26.24;52.19
46846;BME280;33947;46.804;134.252;2024-01-25T11:48:20;101799.06;;;-26.96;54.27
46846;BME280;33947;46.804;134.252;2024-01-25T11:51:28;101797.03;;;-26.59;55.07
46846;BME280;33947;46.804;134.252;2024-01-25T11:54:37;101797.75;;;-27.27;55.93
46846;BME280;33947;46.804;134.252;2024-01-25T11:57:47;101807.78;;;-26.87;56.13
46846;BME280;33947;46.804;134.252;2024-01-25T12:01:02;101808.28;;;-26.69;54.81
46846;BME280;33947;46.804;134.252;2024-01-25T12:04:12;101815.66;;;-26.91;54.69
46846;BME280;33947;46.804;134.252;2024-01-25T12:07:19;101773.47;;;-27.27;55.29
46846;BME280;33947;46.804;134.252;2024-01-25T12:10:30;101773.56;;;-26.92;55.54
46846;BME280;33947;46.804;134.252;2024-01-25T12:13:44;101815.16;;;-26.14;55.14
46846;BME280;33947;46.804;134.252;2024-01-25T12:16:52;101818.16;;;-25.81;53.19
46846;BME280;33947;46.804;134.252;2024-01-25T12:20:00;101778.59;;;-26.10;52.84
46846;BME280;33947;46.804;134.252;2024-01-25T12:23:10;101825.06;;;-26.08;52.87
46846;BME280;33947;46.804;134.252;2024-01-25T12:26:20;101831.16;;;-26.40;53.12
46846;BME280;33947;46.804;134.252;2024-01-25T12:29:27;101779.50;;;-27.12;53.99
46846;BME280;33947;46.804;134.252;2024-01-25T12:32:37;101819.66;;;-26.86;55.65
46846;BME280;33947;46.804;134.252;2024-01-25T12:35:56;101745.25;;;-26.84;54.19
46846;BME280;33947;46.804;134.252;2024-01-25T12:39:07;101818.53;;;-26.48;53.58
46846;BME280;33947;46.804;134.252;2024-01-25T12:42:27;101822.63;;;-26.21;53.28
46846;BME280;33947;46.804;134.252;2024-01-25T12:45:34;101788.63;;;-26.24;52.99
46846;BME280;33947;46.804;134.252;2024-01-25T12:48:44;101618.78;;;-27.91;52.13
46846;BME280;33947;46.804;134.252;2024-01-25T12:52:02;101806.38;;;-26.85;52.54
46846;BME280;33947;46.804;134.252;2024-01-25T12:55:10;101810.94;;;-26.75;52.48
46846;BME280;33947;46.804;134.252;2024-01-25T12:58:20;101778.22;;;-27.69;52.50
46846;BME280;33947;46.804;134.252;2024-01-25T13:05:44;101810.13;;;-27.42;54.37
46846;BME280;33947;46.804;134.252;2024-01-25T13:08:51;101803.47;;;-27.08;54.51
46846;BME280;33947;46.804;134.252;2024-01-25T13:11:59;101815.97;;;-26.95;53.63
46846;BME280;33947;46.804;134.252;2024-01-25T13:15:09;101815.50;;;-27.46;53.32
46846;BME280;33947;46.804;134.252;2024-01-25T13:18:17;101705.22;;;-28.29;53.89
46846;BME280;33947;46.804;134.252;2024-01-25T13:21:25;101811.34;;;-27.79;53.94
46846;BME280;33947;46.804;134.252;2024-01-25T13:24:36;101789.56;;;-28.24;54.36
46846;BME280;33947;46.804;134.252;2024-01-25T13:27:43;101818.00;;;-28.05;54.81
46846;BME280;33947;46.804;134.252;2024-01-25T13:30:57;101820.03;;;-28.15;54.66
46846;BME280;33947;46.804;134.252;2024-01-25T13:34:09;101813.41;;;-28.15;54.73
46846;BME280;33947;46.804;134.252;2024-01-25T13:37:16;101823.50;;;-27.82;55.27
46846;BME280;33947;46.804;134.252;2024-01-25T13:40:25;101826.94;;;-28.46;54.53
46846;BME280;33947;46.804;134.252;2024-01-25T13:43:34;101750.22;;;-28.83;55.28
46846;BME280;33947;46.804;134.252;2024-01-25T13:46:48;101856.00;;;-28.35;55.08
46846;BME280;33947;46.804;134.252;2024-01-25T13:50:08;101851.53;;;-28.43;55.82
46846;BME280;33947;46.804;134.252;2024-01-25T13:53:17;101848.56;;;-28.15;55.72
46846;BME280;33947;46.804;134.252;2024-01-25T13:56:34;101851.84;;;-27.96;55.50
46846;BME280;33947;46.804;134.252;2024-01-25T13:59:42;101848.09;;;-27.53;54.23
46846;BME280;33947;46.804;134.252;2024-01-25T14:03:04;101869.84;;;-27.93;53.43
46846;BME280;33947;46.804;134.252;2024-01-25T14:06:14;101840.41;;;-27.81;54.24
46846;BME280;33947;46.804;134.252;2024-01-25T14:09:33;101833.66;;;-27.75;53.63
46846;BME280;33947;46.804;134.252;2024-01-25T14:12:47;101843.28;;;-27.65;53.01
46846;BME280;33947;46.804;134.252;2024-01-25T14:15:58;101836.53;;;-28.62;53.19
46846;BME280;33947;46.804;134.252;2024-01-25T14:19:21;101684.84;;;-29.73;54.71
46846;BME280;33947;46.804;134.252;2024-01-25T14:22:28;101827.88;;;-28.90;54.64
46846;BME280;33947;46.804;134.252;2024-01-25T14:25:47;101804.78;;;-29.19;55.05
46846;BME280;33947;46.804;134.252;2024-01-25T14:28:55;101843.63;;;-28.34;55.10
46846;BME280;33947;46.804;134.252;2024-01-25T14:32:13;101836.41;;;-28.12;55.17
46846;BME280;33947;46.804;134.252;2024-01-25T14:35:29;101839.25;;;-27.70;54.13
46846;BME280;33947;46.804;134.252;2024-01-25T14:38:36;101801.31;;;-27.92;52.80
46846;BME280;33947;46.804;134.252;2024-01-25T14:41:44;101836.41;;;-28.12;52.28
46846;BME280;33947;46.804;134.252;2024-01-25T14:44:54;101829.00;;;-28.62;53.78
46846;BME280;33947;46.804;134.252;2024-01-25T14:48:04;101835.25;;;-28.79;54.14
46846;BME280;33947;46.804;134.252;2024-01-25T14:51:15;101828.03;;;-29.20;54.30
46846;BME280;33947;46.804;134.252;2024-01-25T14:54:28;101839.06;;;-29.25;55.31
46846;BME280;33947;46.804;134.252;2024-01-25T14:57:36;101778.22;;;-29.74;55.18
46846;BME280;33947;46.804;134.252;2024-01-25T15:00:43;101839.63;;;-29.15;55.64
46846;BME280;33947;46.804;134.252;2024-01-25T15:03:54;101840.59;;;-29.20;55.24
46846;BME280;33947;46.804;134.252;2024-01-25T15:07:05;101847.84;;;-29.35;55.12
46846;BME280;33947;46.804;134.252;2024-01-25T15:10:20;101819.00;;;-29.57;55.49
46846;BME280;33947;46.804;134.252;2024-01-25T15:13:31;101836.72;;;-29.37;56.10
46846;BME280;33947;46.804;134.252;2024-01-25T15:16:39;101839.56;;;-28.78;56.37
46846;BME280;33947;46.804;134.252;2024-01-25T15:19:46;101832.81;;;-28.71;54.56
46846;BME280;33947;46.804;134.252;2024-01-25T15:22:58;101836.84;;;-29.11;54.44
46846;BME280;33947;46.804;134.252;2024-01-25T15:26:06;101828.63;;;-29.28;55.03
46846;BME280;33947;46.804;134.252;2024-01-25T15:29:17;101640.56;;;-30.36;55.05
46846;BME280;33947;46.804;134.252;2024-01-25T15:32:28;101825.03;;;-28.54;55.51
46846;BME280;33947;46.804;134.252;2024-01-25T15:35:44;101829.63;;;-28.44;54.29
46846;BME280;33947;46.804;134.252;2024-01-25T15:38:53;101839.50;;;-28.33;53.59
46846;BME280;33947;46.804;134.252;2024-01-25T15:42:04;101845.59;;;-29.01;53.11
46846;BME280;33947;46.804;134.252;2024-01-25T15:45:13;101855.41;;;-29.53;54.23
46846;BME280;33947;46.804;134.252;2024-01-25T15:48:25;101849.47;;;-29.97;55.38
46846;BME280;33947;46.804;134.252;2024-01-25T15:51:34;101844.00;;;-29.75;55.72
46846;BME280;33947;46.804;134.252;2024-01-25T15:54:47;101843.47;;;-30.10;55.92
46846;BME280;33947;46.804;134.252;2024-01-25T15:57:55;101854.75;;;-29.58;56.22
46846;BME280;33947;46.804;134.252;2024-01-25T16:01:02;101864.03;;;-29.94;55.60